sensor_id;sensor_type;location;lat;lon;timestamp;P1;durP1;ratioP1;P2;durP2;ratioP2
23449;SDS011;11897;45.438;12.128;2024-01-11T00:00:06;28.17;;;14.83;;
23449;SDS011;11897;45.438;12.128;2024-01-11T00:02:35;27.23;;;14.30;;
23449;SDS011;11897;45.438;12.128;2024-01-11T00:05:01;27.17;;;14.53;;
23449;SDS011;11897;45.438;12.128;2024-01-11T00:07:28;26.20;;;14.33;;
23449;SDS011;11897;45.438;12.128;2024-01-11T00:09:55;28.43;;;14.83;;
23449;SDS011;11897;45.438;12.128;2024-01-11T00:12:22;25.97;;;13.57;;
23449;SDS011;11897;45.438;12.128;2024-01-11T00:14:49;26.37;;;15.13;;
23449;SDS011;11897;45.438;12.128;2024-01-11T00:17:15;24.73;;;14.63;;
23449;SDS011;11897;45.438;12.128;2024-01-11T00:19:43;26.70;;;15.37;;
23449;SDS011;11897;45.438;12.128;2024-01-11T00:22:10;25.03;;;14.70;;
23449;SDS011;11897;45.438;12.128;2024-01-11T00:24:37;24.03;;;14.13;;
23449;SDS011;11897;45.438;12.128;2024-01-11T00:27:04;25.17;;;14.07;;
23449;SDS011;11897;45.438;12.128;2024-01-11T00:29:31;24.17;;;14.00;;
23449;SDS011;11897;45.438;12.128;2024-01-11T00:31:57;25.67;;;13.97;;
23449;SDS011;11897;45.438;12.128;2024-01-11T00:34:24;24.07;;;13.37;;
23449;SDS011;11897;45.438;12.128;2024-01-11T00:36:52;20.27;;;13.10;;
23449;SDS011;11897;45.438;12.128;2024-01-11T00:39:19;22.23;;;12.47;;
23449;SDS011;11897;45.438;12.128;2024-01-11T00:41:46;25.03;;;13.60;;
23449;SDS011;11897;45.438;12.128;2024-01-11T00:44:12;23.83;;;13.27;;
23449;SDS011;11897;45.438;12.128;2024-01-11T00:46:39;25.37;;;13.50;;
23449;SDS011;11897;45.438;12.128;2024-01-11T00:49:06;23.00;;;13.17;;
23449;SDS011;11897;45.438;12.128;2024-01-11T00:51:33;24.50;;;13.20;;
23449;SDS011;11897;45.438;12.128;2024-01-11T00:54:01;21.43;;;12.20;;
23449;SDS011;11897;45.438;12.128;2024-01-11T00:56:28;27.40;;;13.37;;
23449;SDS011;11897;45.438;12.128;2024-01-11T00:58:54;23.57;;;12.97;;
23449;SDS011;11897;45.438;12.128;2024-01-11T01:01:21;21.83;;;12.80;;
23449;SDS011;11897;45.438;12.128;2024-01-11T01:03:48;23.10;;;13.53;;
23449;SDS011;11897;45.438;12.128;2024-01-11T01:06:14;25.53;;;14.00;;
23449;SDS011;11897;45.438;12.128;2024-01-11T01:08:41;23.40;;;12.93;;
23449;SDS011;11897;45.438;12.128;2024-01-11T01:11:09;25.73;;;14.30;;
23449;SDS011;11897;45.438;12.128;2024-01-11T01:13:36;22.40;;;13.03;;
23449;SDS011;11897;45.438;12.128;2024-01-11T01:16:02;26.23;;;13.77;;
23449;SDS011;11897;45.438;12.128;2024-01-11T01:18:29;24.13;;;13.77;;
23449;SDS011;11897;45.438;12.128;2024-01-11T01:20:56;23.40;;;13.23;;
23449;SDS011;11897;45.438;12.128;2024-01-11T01:23:23;23.00;;;13.43;;
23449;SDS011;11897;45.438;12.128;2024-01-11T01:25:49;25.40;;;13.40;;
23449;SDS011;11897;45.438;12.128;2024-01-11T01:28:17;25.87;;;13.90;;
23449;SDS011;11897;45.438;12.128;2024-01-11T01:30:44;26.73;;;14.13;;
23449;SDS011;11897;45.438;12.128;2024-01-11T01:33:11;26.17;;;14.50;;
23449;SDS011;11897;45.438;12.128;2024-01-11T01:35:38;22.67;;;13.33;;
23449;SDS011;11897;45.438;12.128;2024-01-11T01:38:04;22.00;;;13.93;;
23449;SDS011;11897;45.438;12.128;2024-01-11T01:40:31;26.03;;;14.43;;
23449;SDS011;11897;45.438;12.128;2024-01-11T01:42:58;27.97;;;14.30;;
23449;SDS011;11897;45.438;12.128;2024-01-11T01:45:26;26.33;;;14.43;;
23449;SDS011;11897;45.438;12.128;2024-01-11T01:47:53;23.50;;;14.30;;
23449;SDS011;11897;45.438;12.128;2024-01-11T01:50:20;23.10;;;13.97;;
23449;SDS011;11897;45.438;12.128;2024-01-11T01:52:47;23.43;;;13.53;;
23449;SDS011;11897;45.438;12.128;2024-01-11T01:55:15;22.33;;;14.17;;
23449;SDS011;11897;45.438;12.128;2024-01-11T01:57:41;25.90;;;14.47;;
23449;SDS011;11897;45.438;12.128;2024-01-11T02:00:10;25.13;;;14.60;;
23449;SDS011;11897;45.438;12.128;2024-01-11T02:02:39;27.80;;;16.30;;
23449;SDS011;11897;45.438;12.128;2024-01-11T02:05:06;27.20;;;15.50;;
23449;SDS011;11897;45.438;12.128;2024-01-11T02:07:33;29.10;;;16.67;;
23449;SDS011;11897;45.438;12.128;2024-01-11T02:10:00;28.20;;;15.73;;
23449;SDS011;11897;45.438;12.128;2024-01-11T02:12:28;27.50;;;17.00;;
23449;SDS011;11897;45.438;12.128;2024-01-11T02:14:55;27.80;;;16.30;;
23449;SDS011;11897;45.438;12.128;2024-01-11T02:17:22;33.20;;;17.97;;
23449;SDS011;11897;45.438;12.128;2024-01-11T02:19:50;27.47;;;16.33;;
23449;SDS011;11897;45.438;12.128;2024-01-11T02:22:19;30.43;;;17.47;;
23449;SDS011;11897;45.438;12.128;2024-01-11T02:24:49;29.07;;;17.03;;
23449;SDS011;11897;45.438;12.128;2024-01-11T02:27:16;31.30;;;16.50;;
23449;SDS011;11897;45.438;12.128;2024-01-11T02:29:42;30.57;;;16.27;;
23449;SDS011;11897;45.438;12.128;2024-01-11T02:32:09;29.90;;;16.90;;
23449;SDS011;11897;45.438;12.128;2024-01-11T02:34:36;33.63;;;17.30;;
23449;SDS011;11897;45.438;12.128;2024-01-11T02:37:03;29.87;;;17.37;;
23449;SDS011;11897;45.438;12.128;2024-01-11T02:39:30;35.40;;;18.00;;
23449;SDS011;11897;45.438;12.128;2024-01-11T02:41:59;26.30;;;16.00;;
23449;SDS011;11897;45.438;12.128;2024-01-11T02:44:26;30.40;;;17.27;;
23449;SDS011;11897;45.438;12.128;2024-01-11T02:46:53;28.40;;;17.27;;
23449;SDS011;11897;45.438;12.128;2024-01-11T02:49:19;29.70;;;17.23;;
23449;SDS011;11897;45.438;12.128;2024-01-11T02:51:46;31.37;;;17.70;;
23449;SDS011;11897;45.438;12.128;2024-01-11T02:54:12;31.97;;;17.20;;
23449;SDS011;11897;45.438;12.128;2024-01-11T02:56:39;33.33;;;17.73;;
23449;SDS011;11897;45.438;12.128;2024-01-11T02:59:08;34.17;;;17.43;;
23449;SDS011;11897;45.438;12.128;2024-01-11T03:01:35;28.30;;;17.13;;
23449;SDS011;11897;45.438;12.128;2024-01-11T03:04:02;31.33;;;17.10;;
23449;SDS011;11897;45.438;12.128;2024-01-11T03:06:28;30.30;;;17.47;;
23449;SDS011;11897;45.438;12.128;2024-01-11T03:08:55;29.20;;;17.47;;
23449;SDS011;11897;45.438;12.128;2024-01-11T03:11:22;26.63;;;16.17;;
23449;SDS011;11897;45.438;12.128;2024-01-11T03:13:48;29.27;;;16.53;;
23449;SDS011;11897;45.438;12.128;2024-01-11T03:16:16;31.20;;;17.90;;
23449;SDS011;11897;45.438;12.128;2024-01-11T03:18:43;30.17;;;17.63;;
23449;SDS011;11897;45.438;12.128;2024-01-11T03:21:10;30.37;;;18.10;;
23449;SDS011;11897;45.438;12.128;2024-01-11T03:23:36;30.33;;;17.77;;
23449;SDS011;11897;45.438;12.128;2024-01-11T03:26:03;32.80;;;18.20;;
23449;SDS011;11897;45.438;12.128;2024-01-11T03:28:30;35.17;;;18.17;;
23449;SDS011;11897;45.438;12.128;2024-01-11T03:30:57;37.00;;;19.53;;
23449;SDS011;11897;45.438;12.128;2024-01-11T03:33:25;32.70;;;18.33;;
23449;SDS011;11897;45.438;12.128;2024-01-11T03:35:52;30.80;;;18.37;;
23449;SDS011;11897;45.438;12.128;2024-01-11T03:38:18;33.80;;;18.87;;
23449;SDS011;11897;45.438;12.128;2024-01-11T03:40:45;34.10;;;19.43;;
23449;SDS011;11897;45.438;12.128;2024-01-11T03:43:12;33.60;;;18.77;;
23449;SDS011;11897;45.438;12.128;2024-01-11T03:45:39;33.77;;;18.93;;
23449;SDS011;11897;45.438;12.128;2024-01-11T03:48:05;33.30;;;19.13;;
23449;SDS011;11897;45.438;12.128;2024-01-11T03:50:33;34.97;;;20.07;;
23449;SDS011;11897;45.438;12.128;2024-01-11T03:53:00;33.07;;;18.60;;
23449;SDS011;11897;45.438;12.128;2024-01-11T03:55:28;34.30;;;19.77;;
23449;SDS011;11897;45.438;12.128;2024-01-11T03:57:54;37.03;;;20.63;;
23449;SDS011;11897;45.438;12.128;2024-01-11T04:00:21;37.67;;;19.97;;
23449;SDS011;11897;45.438;12.128;2024-01-11T04:02:48;38.40;;;19.87;;
23449;SDS011;11897;45.438;12.128;2024-01-11T04:05:14;35.17;;;20.43;;
23449;SDS011;11897;45.438;12.128;2024-01-11T04:07:43;34.77;;;19.53;;
23449;SDS011;11897;45.438;12.128;2024-01-11T04:10:10;36.80;;;19.60;;
23449;SDS011;11897;45.438;12.128;2024-01-11T04:12:37;37.00;;;20.17;;
23449;SDS011;11897;45.438;12.128;2024-01-11T04:15:04;35.10;;;21.00;;
23449;SDS011;11897;45.438;12.128;2024-01-11T04:17:30;32.63;;;20.07;;
23449;SDS011;11897;45.438;12.128;2024-01-11T04:19:57;42.90;;;20.57;;
23449;SDS011;11897;45.438;12.128;2024-01-11T04:22:24;34.60;;;20.47;;
23449;SDS011;11897;45.438;12.128;2024-01-11T04:24:52;37.63;;;21.33;;
23449;SDS011;11897;45.438;12.128;2024-01-11T04:27:19;41.83;;;22.03;;
23449;SDS011;11897;45.438;12.128;2024-01-11T04:29:45;39.80;;;21.37;;
23449;SDS011;11897;45.438;12.128;2024-01-11T04:32:12;33.00;;;18.97;;
23449;SDS011;11897;45.438;12.128;2024-01-11T04:34:39;37.87;;;20.67;;
23449;SDS011;11897;45.438;12.128;2024-01-11T04:37:05;33.90;;;20.53;;
23449;SDS011;11897;45.438;12.128;2024-01-11T04:39:32;37.83;;;20.40;;
23449;SDS011;11897;45.438;12.128;2024-01-11T04:42:00;40.70;;;20.87;;
23449;SDS011;11897;45.438;12.128;2024-01-11T04:44:27;38.90;;;20.30;;
23449;SDS011;11897;45.438;12.128;2024-01-11T04:46:54;31.50;;;19.37;;
23449;SDS011;11897;45.438;12.128;2024-01-11T04:49:20;33.93;;;20.23;;
23449;SDS011;11897;45.438;12.128;2024-01-11T04:51:47;39.23;;;20.20;;
23449;SDS011;11897;45.438;12.128;2024-01-11T04:54:14;35.67;;;20.23;;
23449;SDS011;11897;45.438;12.128;2024-01-11T04:56:41;37.53;;;21.40;;
23449;SDS011;11897;45.438;12.128;2024-01-11T04:59:09;33.83;;;19.73;;
23449;SDS011;11897;45.438;12.128;2024-01-11T05:01:35;41.43;;;20.17;;
23449;SDS011;11897;45.438;12.128;2024-01-11T05:04:02;37.13;;;20.80;;
23449;SDS011;11897;45.438;12.128;2024-01-11T05:06:29;40.57;;;22.37;;
23449;SDS011;11897;45.438;12.128;2024-01-11T05:08:55;36.30;;;21.57;;
23449;SDS011;11897;45.438;12.128;2024-01-11T05:11:22;35.03;;;20.53;;
23449;SDS011;11897;45.438;12.128;2024-01-11T05:13:49;36.60;;;21.13;;
23449;SDS011;11897;45.438;12.128;2024-01-11T05:16:21;37.97;;;21.00;;
23449;SDS011;11897;45.438;12.128;2024-01-11T05:18:49;44.77;;;21.60;;
23449;SDS011;11897;45.438;12.128;2024-01-11T05:21:15;35.10;;;21.00;;
23449;SDS011;11897;45.438;12.128;2024-01-11T05:23:42;41.20;;;20.90;;
23449;SDS011;11897;45.438;12.128;2024-01-11T05:26:09;39.63;;;21.53;;
23449;SDS011;11897;45.438;12.128;2024-01-11T05:28:36;36.47;;;21.60;;
23449;SDS011;11897;45.438;12.128;2024-01-11T05:31:05;38.57;;;21.90;;
23449;SDS011;11897;45.438;12.128;2024-01-11T05:33:33;39.83;;;20.47;;
23449;SDS011;11897;45.438;12.128;2024-01-11T05:36:00;34.43;;;20.70;;
23449;SDS011;11897;45.438;12.128;2024-01-11T05:38:27;37.60;;;22.60;;
23449;SDS011;11897;45.438;12.128;2024-01-11T05:40:54;35.07;;;20.93;;
23449;SDS011;11897;45.438;12.128;2024-01-11T05:43:21;43.30;;;23.03;;
23449;SDS011;11897;45.438;12.128;2024-01-11T05:45:48;43.90;;;24.03;;
23449;SDS011;11897;45.438;12.128;2024-01-11T05:48:15;42.63;;;23.57;;
23449;SDS011;11897;45.438;12.128;2024-01-11T05:50:43;42.80;;;22.17;;
23449;SDS011;11897;45.438;12.128;2024-01-11T05:53:10;41.33;;;22.57;;
23449;SDS011;11897;45.438;12.128;2024-01-11T05:55:36;41.53;;;22.53;;
23449;SDS011;11897;45.438;12.128;2024-01-11T05:58:03;42.03;;;23.07;;
23449;SDS011;11897;45.438;12.128;2024-01-11T06:00:30;38.50;;;22.57;;
23449;SDS011;11897;45.438;12.128;2024-01-11T06:02:56;42.20;;;23.80;;
23449;SDS011;11897;45.438;12.128;2024-01-11T06:05:23;37.00;;;22.10;;
23449;SDS011;11897;45.438;12.128;2024-01-11T06:07:51;40.50;;;22.60;;
23449;SDS011;11897;45.438;12.128;2024-01-11T06:10:18;36.77;;;21.63;;
23449;SDS011;11897;45.438;12.128;2024-01-11T06:12:45;36.07;;;21.47;;
23449;SDS011;11897;45.438;12.128;2024-01-11T06:15:12;36.43;;;20.63;;
23449;SDS011;11897;45.438;12.128;2024-01-11T06:17:39;36.60;;;20.77;;
23449;SDS011;11897;45.438;12.128;2024-01-11T06:20:06;36.43;;;20.33;;
23449;SDS011;11897;45.438;12.128;2024-01-11T06:22:33;38.60;;;21.07;;
23449;SDS011;11897;45.438;12.128;2024-01-11T06:25:01;42.47;;;21.87;;
23449;SDS011;11897;45.438;12.128;2024-01-11T06:27:29;39.53;;;20.50;;
23449;SDS011;11897;45.438;12.128;2024-01-11T06:29:55;35.17;;;20.03;;
23449;SDS011;11897;45.438;12.128;2024-01-11T06:32:22;37.80;;;21.17;;
23449;SDS011;11897;45.438;12.128;2024-01-11T06:34:49;35.93;;;20.43;;
23449;SDS011;11897;45.438;12.128;2024-01-11T06:37:16;31.97;;;19.27;;
23449;SDS011;11897;45.438;12.128;2024-01-11T06:39:43;45.63;;;21.67;;
23449;SDS011;11897;45.438;12.128;2024-01-11T06:42:11;32.93;;;19.23;;
23449;SDS011;11897;45.438;12.128;2024-01-11T06:44:38;39.07;;;19.80;;
23449;SDS011;11897;45.438;12.128;2024-01-11T06:47:04;36.70;;;19.57;;
23449;SDS011;11897;45.438;12.128;2024-01-11T06:49:31;35.73;;;18.83;;
23449;SDS011;11897;45.438;12.128;2024-01-11T06:51:58;35.50;;;19.77;;
23449;SDS011;11897;45.438;12.128;2024-01-11T06:54:24;35.63;;;19.87;;
23449;SDS011;11897;45.438;12.128;2024-01-11T06:56:51;35.53;;;18.73;;
23449;SDS011;11897;45.438;12.128;2024-01-11T06:59:20;29.07;;;18.63;;
23449;SDS011;11897;45.438;12.128;2024-01-11T07:01:46;35.23;;;21.27;;
23449;SDS011;11897;45.438;12.128;2024-01-11T07:04:14;34.83;;;20.50;;
23449;SDS011;11897;45.438;12.128;2024-01-11T07:06:41;32.47;;;19.33;;
23449;SDS011;11897;45.438;12.128;2024-01-11T07:09:07;34.70;;;19.13;;
23449;SDS011;11897;45.438;12.128;2024-01-11T07:11:36;37.87;;;21.77;;
23449;SDS011;11897;45.438;12.128;2024-01-11T07:14:02;41.93;;;23.13;;
23449;SDS011;11897;45.438;12.128;2024-01-11T07:16:31;37.87;;;22.10;;
23449;SDS011;11897;45.438;12.128;2024-01-11T07:18:57;34.87;;;20.03;;
23449;SDS011;11897;45.438;12.128;2024-01-11T07:21:24;37.23;;;21.60;;
23449;SDS011;11897;45.438;12.128;2024-01-11T07:23:55;37.53;;;20.93;;
23449;SDS011;11897;45.438;12.128;2024-01-11T07:26:22;39.00;;;21.47;;
23449;SDS011;11897;45.438;12.128;2024-01-11T07:28:48;36.50;;;20.77;;
23449;SDS011;11897;45.438;12.128;2024-01-11T07:31:15;31.63;;;20.67;;
23449;SDS011;11897;45.438;12.128;2024-01-11T07:33:43;35.03;;;20.00;;
23449;SDS011;11897;45.438;12.128;2024-01-11T07:36:10;38.47;;;21.57;;
23449;SDS011;11897;45.438;12.128;2024-01-11T07:38:37;36.07;;;20.50;;
23449;SDS011;11897;45.438;12.128;2024-01-11T07:41:04;33.53;;;19.30;;
23449;SDS011;11897;45.438;12.128;2024-01-11T07:43:30;28.43;;;18.23;;
23449;SDS011;11897;45.438;12.128;2024-01-11T07:46:00;35.07;;;19.43;;
23449;SDS011;11897;45.438;12.128;2024-01-11T07:48:27;33.43;;;18.67;;
23449;SDS011;11897;45.438;12.128;2024-01-11T07:50:55;30.77;;;17.87;;
23449;SDS011;11897;45.438;12.128;2024-01-11T07:53:22;37.47;;;19.30;;
23449;SDS011;11897;45.438;12.128;2024-01-11T07:55:49;34.60;;;18.80;;
23449;SDS011;11897;45.438;12.128;2024-01-11T07:58:16;33.50;;;18.27;;
23449;SDS011;11897;45.438;12.128;2024-01-11T08:00:43;31.27;;;16.90;;
23449;SDS011;11897;45.438;12.128;2024-01-11T08:03:10;31.27;;;16.67;;
23449;SDS011;11897;45.438;12.128;2024-01-11T08:05:36;26.53;;;17.30;;
23449;SDS011;11897;45.438;12.128;2024-01-11T08:08:05;26.70;;;16.53;;
23449;SDS011;11897;45.438;12.128;2024-01-11T08:10:32;30.30;;;16.73;;
23449;SDS011;11897;45.438;12.128;2024-01-11T08:12:59;25.90;;;16.60;;
23449;SDS011;11897;45.438;12.128;2024-01-11T08:15:26;24.93;;;16.47;;
23449;SDS011;11897;45.438;12.128;2024-01-11T08:17:53;23.60;;;15.40;;
23449;SDS011;11897;45.438;12.128;2024-01-11T08:20:19;28.53;;;16.60;;
23449;SDS011;11897;45.438;12.128;2024-01-11T08:22:46;27.43;;;16.07;;
23449;SDS011;11897;45.438;12.128;2024-01-11T08:25:14;29.13;;;17.37;;
23449;SDS011;11897;45.438;12.128;2024-01-11T08:27:41;26.37;;;16.00;;
23449;SDS011;11897;45.438;12.128;2024-01-11T08:30:08;25.37;;;16.83;;
23449;SDS011;11897;45.438;12.128;2024-01-11T08:32:35;25.83;;;15.10;;
23449;SDS011;11897;45.438;12.128;2024-01-11T08:35:04;24.97;;;16.40;;
23449;SDS011;11897;45.438;12.128;2024-01-11T08:37:31;28.40;;;16.93;;
23449;SDS011;11897;45.438;12.128;2024-01-11T08:39:58;27.97;;;15.77;;
23449;SDS011;11897;45.438;12.128;2024-01-11T08:42:26;25.13;;;15.20;;
23449;SDS011;11897;45.438;12.128;2024-01-11T08:44:53;22.90;;;15.60;;
23449;SDS011;11897;45.438;12.128;2024-01-11T08:47:20;23.00;;;14.17;;
23449;SDS011;11897;45.438;12.128;2024-01-11T08:49:46;22.80;;;14.40;;
23449;SDS011;11897;45.438;12.128;2024-01-11T08:52:14;24.00;;;14.53;;
23449;SDS011;11897;45.438;12.128;2024-01-11T08:54:40;26.33;;;14.90;;
23449;SDS011;11897;45.438;12.128;2024-01-11T08:57:07;22.27;;;15.87;;
23449;SDS011;11897;45.438;12.128;2024-01-11T08:59:35;27.00;;;14.97;;
23449;SDS011;11897;45.438;12.128;2024-01-11T09:02:02;27.70;;;15.10;;
23449;SDS011;11897;45.438;12.128;2024-01-11T09:04:28;26.50;;;16.37;;
23449;SDS011;11897;45.438;12.128;2024-01-11T09:06:56;24.37;;;14.97;;
23449;SDS011;11897;45.438;12.128;2024-01-11T09:09:22;24.00;;;14.70;;
23449;SDS011;11897;45.438;12.128;2024-01-11T09:11:49;24.47;;;14.83;;
23449;SDS011;11897;45.438;12.128;2024-01-11T09:14:17;24.83;;;14.87;;
23449;SDS011;11897;45.438;12.128;2024-01-11T09:16:45;22.70;;;14.37;;
23449;SDS011;11897;45.438;12.128;2024-01-11T09:19:14;26.27;;;15.13;;
23449;SDS011;11897;45.438;12.128;2024-01-11T09:21:40;24.30;;;13.63;;
23449;SDS011;11897;45.438;12.128;2024-01-11T09:24:07;72.97;;;18.23;;
23449;SDS011;11897;45.438;12.128;2024-01-11T09:26:34;40.27;;;14.67;;
23449;SDS011;11897;45.438;12.128;2024-01-11T09:29:01;25.97;;;14.33;;
23449;SDS011;11897;45.438;12.128;2024-01-11T09:31:28;19.10;;;13.70;;
23449;SDS011;11897;45.438;12.128;2024-01-11T09:33:57;18.20;;;11.70;;
23449;SDS011;11897;45.438;12.128;2024-01-11T09:36:23;19.73;;;12.20;;
23449;SDS011;11897;45.438;12.128;2024-01-11T09:38:50;18.63;;;12.50;;
23449;SDS011;11897;45.438;12.128;2024-01-11T09:41:16;22.40;;;12.17;;
23449;SDS011;11897;45.438;12.128;2024-01-11T09:43:43;15.93;;;10.87;;
23449;SDS011;11897;45.438;12.128;2024-01-11T09:46:12;18.50;;;11.83;;
23449;SDS011;11897;45.438;12.128;2024-01-11T09:48:39;18.07;;;12.03;;
23449;SDS011;11897;45.438;12.128;2024-01-11T09:51:09;17.63;;;12.03;;
23449;SDS011;11897;45.438;12.128;2024-01-11T09:53:36;17.57;;;11.83;;
23449;SDS011;11897;45.438;12.128;2024-01-11T09:56:04;18.23;;;11.30;;
23449;SDS011;11897;45.438;12.128;2024-01-11T09:58:33;20.27;;;12.13;;
23449;SDS011;11897;45.438;12.128;2024-01-11T10:01:02;18.80;;;11.73;;
23449;SDS011;11897;45.438;12.128;2024-01-11T10:03:29;20.27;;;12.30;;
23449;SDS011;11897;45.438;12.128;2024-01-11T10:05:57;20.60;;;12.30;;
23449;SDS011;11897;45.438;12.128;2024-01-11T10:08:25;17.63;;;11.90;;
23449;SDS011;11897;45.438;12.128;2024-01-11T10:10:52;18.20;;;12.10;;
23449;SDS011;11897;45.438;12.128;2024-01-11T10:13:19;20.03;;;12.97;;
23449;SDS011;11897;45.438;12.128;2024-01-11T10:15:51;19.83;;;13.00;;
23449;SDS011;11897;45.438;12.128;2024-01-11T10:18:18;17.87;;;11.77;;
23449;SDS011;11897;45.438;12.128;2024-01-11T10:20:48;19.33;;;12.30;;
23449;SDS011;11897;45.438;12.128;2024-01-11T10:23:17;14.70;;;10.47;;
23449;SDS011;11897;45.438;12.128;2024-01-11T10:25:45;19.07;;;12.20;;
23449;SDS011;11897;45.438;12.128;2024-01-11T10:28:13;18.87;;;11.53;;
23449;SDS011;11897;45.438;12.128;2024-01-11T10:30:39;16.93;;;11.00;;
23449;SDS011;11897;45.438;12.128;2024-01-11T10:33:07;18.17;;;11.73;;
23449;SDS011;11897;45.438;12.128;2024-01-11T10:35:33;17.23;;;11.33;;
23449;SDS011;11897;45.438;12.128;2024-01-11T10:38:01;20.73;;;11.67;;
23449;SDS011;11897;45.438;12.128;2024-01-11T10:40:31;17.37;;;11.27;;
23449;SDS011;11897;45.438;12.128;2024-01-11T10:43:00;19.60;;;11.23;;
23449;SDS011;11897;45.438;12.128;2024-01-11T10:45:28;19.77;;;12.10;;
23449;SDS011;11897;45.438;12.128;2024-01-11T10:47:55;19.03;;;11.70;;
23449;SDS011;11897;45.438;12.128;2024-01-11T10:50:22;18.13;;;11.90;;
23449;SDS011;11897;45.438;12.128;2024-01-11T10:55:34;18.77;;;11.73;;
23449;SDS011;11897;45.438;12.128;2024-01-11T10:58:02;18.67;;;11.63;;
23449;SDS011;11897;45.438;12.128;2024-01-11T11:00:30;18.20;;;11.53;;
23449;SDS011;11897;45.438;12.128;2024-01-11T11:02:57;19.83;;;12.60;;
23449;SDS011;11897;45.438;12.128;2024-01-11T11:05:25;16.50;;;10.87;;
23449;SDS011;11897;45.438;12.128;2024-01-11T11:07:54;18.30;;;11.47;;
23449;SDS011;11897;45.438;12.128;2024-01-11T11:10:21;22.00;;;11.37;;
23449;SDS011;11897;45.438;12.128;2024-01-11T11:12:48;15.87;;;10.37;;
23449;SDS011;11897;45.438;12.128;2024-01-11T11:15:16;15.50;;;10.10;;
23449;SDS011;11897;45.438;12.128;2024-01-11T11:17:43;14.70;;;9.50;;
23449;SDS011;11897;45.438;12.128;2024-01-11T11:20:11;18.13;;;10.67;;
23449;SDS011;11897;45.438;12.128;2024-01-11T11:22:39;18.10;;;10.50;;
23449;SDS011;11897;45.438;12.128;2024-01-11T11:25:07;15.33;;;9.10;;
23449;SDS011;11897;45.438;12.128;2024-01-11T11:27:34;14.37;;;9.43;;
23449;SDS011;11897;45.438;12.128;2024-01-11T11:30:02;18.53;;;10.80;;
23449;SDS011;11897;45.438;12.128;2024-01-11T11:32:37;15.80;;;9.87;;
23449;SDS011;11897;45.438;12.128;2024-01-11T11:35:05;17.73;;;10.23;;
23449;SDS011;11897;45.438;12.128;2024-01-11T11:37:33;14.93;;;9.50;;
23449;SDS011;11897;45.438;12.128;2024-01-11T11:40:02;15.17;;;9.20;;
23449;SDS011;11897;45.438;12.128;2024-01-11T11:42:30;16.57;;;10.53;;
23449;SDS011;11897;45.438;12.128;2024-01-11T11:44:56;18.07;;;10.47;;
23449;SDS011;11897;45.438;12.128;2024-01-11T11:47:24;18.70;;;10.87;;
23449;SDS011;11897;45.438;12.128;2024-01-11T11:49:58;15.00;;;9.50;;
23449;SDS011;11897;45.438;12.128;2024-01-11T11:52:29;15.60;;;9.30;;
23449;SDS011;11897;45.438;12.128;2024-01-11T11:54:56;14.67;;;8.83;;
23449;SDS011;11897;45.438;12.128;2024-01-11T11:57:24;13.87;;;8.60;;
23449;SDS011;11897;45.438;12.128;2024-01-11T11:59:50;14.50;;;9.47;;
23449;SDS011;11897;45.438;12.128;2024-01-11T12:02:17;12.83;;;8.20;;
23449;SDS011;11897;45.438;12.128;2024-01-11T12:04:46;14.83;;;8.80;;
23449;SDS011;11897;45.438;12.128;2024-01-11T12:07:15;15.33;;;8.90;;
23449;SDS011;11897;45.438;12.128;2024-01-11T12:09:42;13.03;;;8.07;;
23449;SDS011;11897;45.438;12.128;2024-01-11T12:12:09;14.67;;;9.27;;
23449;SDS011;11897;45.438;12.128;2024-01-11T12:14:36;14.43;;;8.87;;
23449;SDS011;11897;45.438;12.128;2024-01-11T12:17:02;15.83;;;9.17;;
23449;SDS011;11897;45.438;12.128;2024-01-11T12:19:29;15.20;;;8.77;;
23449;SDS011;11897;45.438;12.128;2024-01-11T12:21:56;13.73;;;8.70;;
23449;SDS011;11897;45.438;12.128;2024-01-11T12:24:24;15.87;;;9.23;;
23449;SDS011;11897;45.438;12.128;2024-01-11T12:26:52;15.83;;;8.87;;
23449;SDS011;11897;45.438;12.128;2024-01-11T12:29:20;13.70;;;7.83;;
23449;SDS011;11897;45.438;12.128;2024-01-11T12:31:46;13.40;;;8.53;;
23449;SDS011;11897;45.438;12.128;2024-01-11T12:34:13;12.23;;;8.10;;
23449;SDS011;11897;45.438;12.128;2024-01-11T12:36:40;13.77;;;8.67;;
23449;SDS011;11897;45.438;12.128;2024-01-11T12:39:07;13.03;;;8.70;;
23449;SDS011;11897;45.438;12.128;2024-01-11T12:41:36;13.57;;;8.93;;
23449;SDS011;11897;45.438;12.128;2024-01-11T12:44:03;12.73;;;8.20;;
23449;SDS011;11897;45.438;12.128;2024-01-11T12:46:29;17.43;;;9.23;;
23449;SDS011;11897;45.438;12.128;2024-01-11T12:48:56;17.00;;;9.13;;
23449;SDS011;11897;45.438;12.128;2024-01-11T12:51:23;17.77;;;8.67;;
23449;SDS011;11897;45.438;12.128;2024-01-11T12:53:50;18.90;;;9.07;;
23449;SDS011;11897;45.438;12.128;2024-01-11T12:56:17;15.30;;;8.70;;
23449;SDS011;11897;45.438;12.128;2024-01-11T12:58:47;13.17;;;8.63;;
23449;SDS011;11897;45.438;12.128;2024-01-11T13:01:14;12.87;;;8.40;;
23449;SDS011;11897;45.438;12.128;2024-01-11T13:03:43;12.80;;;8.07;;
23449;SDS011;11897;45.438;12.128;2024-01-11T13:06:11;11.57;;;7.97;;
23449;SDS011;11897;45.438;12.128;2024-01-11T13:08:38;15.87;;;9.17;;
23449;SDS011;11897;45.438;12.128;2024-01-11T13:11:06;14.97;;;8.90;;
23449;SDS011;11897;45.438;12.128;2024-01-11T13:13:34;12.07;;;8.13;;
23449;SDS011;11897;45.438;12.128;2024-01-11T13:16:02;15.33;;;8.50;;
23449;SDS011;11897;45.438;12.128;2024-01-11T13:18:31;14.80;;;9.13;;
23449;SDS011;11897;45.438;12.128;2024-01-11T13:20:57;16.87;;;9.47;;
23449;SDS011;11897;45.438;12.128;2024-01-11T13:23:24;12.93;;;8.63;;
23449;SDS011;11897;45.438;12.128;2024-01-11T13:25:51;11.93;;;8.20;;
23449;SDS011;11897;45.438;12.128;2024-01-11T13:28:19;9.70;;;7.30;;
23449;SDS011;11897;45.438;12.128;2024-01-11T13:30:46;12.57;;;7.70;;
23449;SDS011;11897;45.438;12.128;2024-01-11T13:33:15;12.27;;;7.50;;
23449;SDS011;11897;45.438;12.128;2024-01-11T13:35:42;11.80;;;7.87;;
23449;SDS011;11897;45.438;12.128;2024-01-11T13:38:10;14.07;;;8.00;;
23449;SDS011;11897;45.438;12.128;2024-01-11T13:40:36;11.00;;;7.40;;
23449;SDS011;11897;45.438;12.128;2024-01-11T13:43:05;10.43;;;7.13;;
23449;SDS011;11897;45.438;12.128;2024-01-11T13:45:31;11.07;;;6.83;;
23449;SDS011;11897;45.438;12.128;2024-01-11T13:48:01;10.70;;;6.53;;
23449;SDS011;11897;45.438;12.128;2024-01-11T13:50:29;12.03;;;7.47;;
23449;SDS011;11897;45.438;12.128;2024-01-11T13:52:56;15.17;;;8.87;;
23449;SDS011;11897;45.438;12.128;2024-01-11T13:55:23;13.70;;;8.17;;
23449;SDS011;11897;45.438;12.128;2024-01-11T13:57:50;15.53;;;8.40;;
23449;SDS011;11897;45.438;12.128;2024-01-11T14:00:18;12.90;;;8.20;;
23449;SDS011;11897;45.438;12.128;2024-01-11T14:02:45;10.63;;;7.27;;
23449;SDS011;11897;45.438;12.128;2024-01-11T14:05:12;10.97;;;7.40;;
23449;SDS011;11897;45.438;12.128;2024-01-11T14:07:42;13.60;;;7.53;;
23449;SDS011;11897;45.438;12.128;2024-01-11T14:10:10;11.80;;;7.97;;
23449;SDS011;11897;45.438;12.128;2024-01-11T14:12:38;10.70;;;6.77;;